Cimarron, New Mexico
Current Conditions -  °F | °C
As of 11:15 PM on Wednesday 24 Dec 2014 (Local Time) from KAXX Reporting Station
Clear Clear  
Wind Chill: 18°   Ceiling: Unl
Heat Index: 29°   Visibility: 10mi
Dew Point:   Wind: 15mph
Humidity: 42%   Direction: 220°SW
Pressure: 29.78"   Gusts: 30mph
Location:  36.51°N, 104.92°W
Report Text: KAXX 250615Z AUTO 22013G26KT 10SM CLR M01/M13 A2978 RMK AO2 T10151130
Loading
Personal Weather Stations






























Interactive Weather Map New forecast layout! Learn more

10-Day Weather Forecast

Advertisements
Track Severe Weather on mobile